This is the latest recevied weather packets stored in our database for station/object N9XTN-3. If no packets are shown the sender has not sent any weather packets the latest 10 day(s).
| Time | Temp. | Humidity | Pressure | Rain* | Wind** | Luminosity | Snow |
|---|---|---|---|---|---|---|---|
| 1778076317 | 8.89° C | 51% | 1019.1 hPa | 0 mm | - | - | - |
| 1778072117 | 6.11° C | 62% | 1018.6 hPa | 0 mm | - | - | - |
| 1778071817 | 5.56° C | 64% | 1018.6 hPa | 0 mm | - | - | - |
| 1778070037 | 3.89° C | 68% | 1018.1 hPa | 0 mm | - | - | - |
| 1778068217 | 2.78° C | 68% | 1017.4 hPa | 0 mm | - | - | - |
| 1778067317 | 2.78° C | 67% | 1017.2 hPa | 0 mm | - | - | - |
| 1778066117 | 2.22° C | 68% | 1017.1 hPa | 0 mm | - | - | - |
| 1778065817 | 2.22° C | 68% | 1017.1 hPa | 0 mm | - | - | - |
| 1778064957 | 2.22° C | 70% | 1017.2 hPa | 0 mm | - | - | - |
| 1778061317 | 3.33° C | 64% | 1016.8 hPa | 0 mm | - | - | - |
| 1778057116 | 5° C | 64% | 1016.2 hPa | 0 mm | - | - | - |
| 1778056817 | 5° C | 64% | 1016.2 hPa | 0 mm | - | - | - |
| 1778054417 | 6.11° C | 58% | 1016.3 hPa | 0 mm | - | - | - |
| 1778052617 | 6.11° C | 57% | 1015.8 hPa | 0 mm | - | - | - |
| 1778052317 | 6.11° C | 57% | 1015.9 hPa | 0 mm | - | - | - |
| 1778048719 | 6.67° C | 57% | 1015.9 hPa | 0 mm | - | - | - |
| 1778048139 | 6.67° C | 56% | 1015.7 hPa | 0 mm | - | - | - |
| 1778041517 | 8.33° C | 50% | 1014.7 hPa | 0 mm | - | - | - |
| 1778040617 | 8.33° C | 49% | 1014.6 hPa | 0 mm | - | - | - |
| 1778038537 | 8.33° C | 48% | 1014.5 hPa | 0 mm | - | - | - |
| 1778037917 | 8.89° C | 48% | 1014.3 hPa | 0 mm | - | - | - |
| 1778037617 | 8.89° C | 47% | 1014.2 hPa | 0 mm | - | - | - |
| 1778037317 | 8.89° C | 46% | 1014.1 hPa | 0 mm | - | - | - |
| 1778034617 | 10° C | 40% | 1013.5 hPa | 0 mm | - | - | - |
| 1778034037 | 10.56° C | 41% | 1013.4 hPa | 0 mm | - | - | - |
* Rain latest hour (hover to see other rain measurements)
** Current wind speed in m/s (hover to see current wind gust speed)